Hagaman, Illinois
Current Conditions -  °F | °C
As of 6:15 AM on Friday 24 Oct 2014 (Local Time) from K3LF Reporting Station
Clear Clear  
Wind Chill: 51°   Ceiling: Unl
Heat Index: 51°   Visibility: 10mi
Dew Point: 47°   Wind: 3mph
Humidity: 87%   Direction: 250°WSW
Pressure: 30.08"   Gusts: NA
Location:  39.2816°N, 90.0918°W
Report Text: K3LF 241115Z AUTO 25003KT 10SM CLR 11/09 A3008 RMK AO2 T01050085
Loading
Personal Weather Stations






























Interactive Weather Map
Tropical Storm Tracking
New forecast layout! Learn more

10-Day Weather Forecast

Advertisements
Track Severe Weather on mobile